sensor_id;sensor_type;location;lat;lon;timestamp;P1;durP1;ratioP1;P2;durP2;ratioP2
3781;SDS011;6881;49.962;7.718;2022-09-11T00:00:32;13.80;;;11.57;;
3781;SDS011;6881;49.962;7.718;2022-09-11T00:02:57;13.07;;;11.73;;
3781;SDS011;6881;49.962;7.718;2022-09-11T00:05:23;13.10;;;11.53;;
3781;SDS011;6881;49.962;7.718;2022-09-11T00:07:49;14.80;;;11.50;;
3781;SDS011;6881;49.962;7.718;2022-09-11T00:10:15;16.67;;;14.27;;
3781;SDS011;6881;49.962;7.718;2022-09-11T00:12:41;13.43;;;11.83;;
3781;SDS011;6881;49.962;7.718;2022-09-11T00:15:07;14.57;;;12.97;;
3781;SDS011;6881;49.962;7.718;2022-09-11T00:17:33;15.80;;;13.13;;
3781;SDS011;6881;49.962;7.718;2022-09-11T00:19:58;17.83;;;13.63;;
3781;SDS011;6881;49.962;7.718;2022-09-11T00:22:25;18.93;;;14.10;;
3781;SDS011;6881;49.962;7.718;2022-09-11T00:24:51;17.57;;;14.00;;
3781;SDS011;6881;49.962;7.718;2022-09-11T00:27:16;15.77;;;13.57;;
3781;SDS011;6881;49.962;7.718;2022-09-11T00:29:41;15.50;;;13.40;;
3781;SDS011;6881;49.962;7.718;2022-09-11T00:32:07;13.57;;;12.17;;
3781;SDS011;6881;49.962;7.718;2022-09-11T00:34:33;15.27;;;11.83;;
3781;SDS011;6881;49.962;7.718;2022-09-11T00:36:59;23.10;;;15.33;;
3781;SDS011;6881;49.962;7.718;2022-09-11T00:39:24;20.90;;;14.17;;
3781;SDS011;6881;49.962;7.718;2022-09-11T00:41:50;18.97;;;14.20;;
3781;SDS011;6881;49.962;7.718;2022-09-11T00:46:46;15.57;;;13.67;;
3781;SDS011;6881;49.962;7.718;2022-09-11T00:49:23;16.07;;;13.80;;
3781;SDS011;6881;49.962;7.718;2022-09-11T00:51:55;15.93;;;14.30;;
3781;SDS011;6881;49.962;7.718;2022-09-11T00:54:25;13.60;;;12.17;;
3781;SDS011;6881;49.962;7.718;2022-09-11T00:56:53;14.70;;;13.20;;
3781;SDS011;6881;49.962;7.718;2022-09-11T00:59:18;17.27;;;12.80;;
3781;SDS011;6881;49.962;7.718;2022-09-11T01:01:49;18.40;;;13.97;;
3781;SDS011;6881;49.962;7.718;2022-09-11T01:04:14;18.33;;;12.17;;
3781;SDS011;6881;49.962;7.718;2022-09-11T01:06:40;16.50;;;13.77;;
3781;SDS011;6881;49.962;7.718;2022-09-11T01:09:05;19.47;;;13.53;;
3781;SDS011;6881;49.962;7.718;2022-09-11T01:17:26;14.53;;;13.00;;
3781;SDS011;6881;49.962;7.718;2022-09-11T01:28:35;14.77;;;12.63;;
3781;SDS011;6881;49.962;7.718;2022-09-11T01:31:09;19.27;;;15.43;;
3781;SDS011;6881;49.962;7.718;2022-09-11T01:33:43;17.07;;;13.37;;
3781;SDS011;6881;49.962;7.718;2022-09-11T01:36:17;17.50;;;14.57;;
3781;SDS011;6881;49.962;7.718;2022-09-11T01:38:47;18.97;;;16.13;;
3781;SDS011;6881;49.962;7.718;2022-09-11T01:41:16;18.00;;;15.60;;
3781;SDS011;6881;49.962;7.718;2022-09-11T01:46:17;20.10;;;15.37;;
3781;SDS011;6881;49.962;7.718;2022-09-11T01:48:47;28.80;;;17.03;;
3781;SDS011;6881;49.962;7.718;2022-09-11T01:51:19;18.47;;;15.37;;
3781;SDS011;6881;49.962;7.718;2022-09-11T01:53:47;18.00;;;15.30;;
3781;SDS011;6881;49.962;7.718;2022-09-11T01:56:19;19.10;;;16.07;;
3781;SDS011;6881;49.962;7.718;2022-09-11T01:58:46;22.57;;;16.43;;
3781;SDS011;6881;49.962;7.718;2022-09-11T02:01:19;17.73;;;15.50;;
3781;SDS011;6881;49.962;7.718;2022-09-11T02:03:49;22.07;;;16.80;;
3781;SDS011;6881;49.962;7.718;2022-09-11T02:06:20;23.57;;;17.00;;
3781;SDS011;6881;49.962;7.718;2022-09-11T02:08:57;21.53;;;15.87;;
3781;SDS011;6881;49.962;7.718;2022-09-11T02:11:25;19.40;;;15.90;;
3781;SDS011;6881;49.962;7.718;2022-09-11T02:14:01;18.30;;;15.20;;
3781;SDS011;6881;49.962;7.718;2022-09-11T02:19:03;21.77;;;17.13;;
3781;SDS011;6881;49.962;7.718;2022-09-11T02:21:30;22.33;;;17.30;;
3781;SDS011;6881;49.962;7.718;2022-09-11T02:23:56;19.53;;;17.23;;
3781;SDS011;6881;49.962;7.718;2022-09-11T02:26:25;20.13;;;17.00;;
3781;SDS011;6881;49.962;7.718;2022-09-11T02:28:52;25.20;;;17.73;;
3781;SDS011;6881;49.962;7.718;2022-09-11T02:31:19;21.37;;;17.07;;
3781;SDS011;6881;49.962;7.718;2022-09-11T02:33:45;22.17;;;17.70;;
3781;SDS011;6881;49.962;7.718;2022-09-11T02:38:45;24.73;;;18.00;;
3781;SDS011;6881;49.962;7.718;2022-09-11T02:41:34;26.63;;;19.30;;
3781;SDS011;6881;49.962;7.718;2022-09-11T02:44:16;23.93;;;18.67;;
3781;SDS011;6881;49.962;7.718;2022-09-11T02:59:58;21.53;;;18.47;;
3781;SDS011;6881;49.962;7.718;2022-09-11T03:02:26;23.17;;;19.30;;
3781;SDS011;6881;49.962;7.718;2022-09-11T03:04:53;24.73;;;18.00;;
3781;SDS011;6881;49.962;7.718;2022-09-11T03:07:18;23.80;;;18.60;;
3781;SDS011;6881;49.962;7.718;2022-09-11T03:09:43;23.07;;;18.40;;
3781;SDS011;6881;49.962;7.718;2022-09-11T03:12:09;24.03;;;17.57;;
3781;SDS011;6881;49.962;7.718;2022-09-11T03:14:35;23.17;;;19.20;;
3781;SDS011;6881;49.962;7.718;2022-09-11T03:17:02;23.30;;;17.60;;
3781;SDS011;6881;49.962;7.718;2022-09-11T03:19:28;23.70;;;17.97;;
3781;SDS011;6881;49.962;7.718;2022-09-11T03:21:54;23.07;;;18.00;;
3781;SDS011;6881;49.962;7.718;2022-09-11T03:24:19;21.27;;;16.50;;
3781;SDS011;6881;49.962;7.718;2022-09-11T03:26:45;20.00;;;17.13;;
3781;SDS011;6881;49.962;7.718;2022-09-11T03:29:10;19.47;;;16.20;;
3781;SDS011;6881;49.962;7.718;2022-09-11T03:31:36;21.43;;;17.40;;
3781;SDS011;6881;49.962;7.718;2022-09-11T03:34:01;22.63;;;18.17;;
3781;SDS011;6881;49.962;7.718;2022-09-11T03:36:26;21.87;;;17.57;;
3781;SDS011;6881;49.962;7.718;2022-09-11T03:38:52;22.33;;;16.73;;
3781;SDS011;6881;49.962;7.718;2022-09-11T03:41:19;26.57;;;19.27;;
3781;SDS011;6881;49.962;7.718;2022-09-11T03:43:44;20.70;;;16.90;;
3781;SDS011;6881;49.962;7.718;2022-09-11T03:46:10;23.87;;;18.17;;
3781;SDS011;6881;49.962;7.718;2022-09-11T03:48:35;25.97;;;18.90;;
3781;SDS011;6881;49.962;7.718;2022-09-11T03:51:00;23.00;;;17.60;;
3781;SDS011;6881;49.962;7.718;2022-09-11T03:53:28;22.47;;;16.43;;
3781;SDS011;6881;49.962;7.718;2022-09-11T03:55:55;21.67;;;17.07;;
3781;SDS011;6881;49.962;7.718;2022-09-11T03:58:20;24.03;;;19.00;;
3781;SDS011;6881;49.962;7.718;2022-09-11T04:00:46;23.90;;;18.20;;
3781;SDS011;6881;49.962;7.718;2022-09-11T04:03:13;22.87;;;17.07;;
3781;SDS011;6881;49.962;7.718;2022-09-11T04:05:42;29.47;;;17.00;;
3781;SDS011;6881;49.962;7.718;2022-09-11T04:08:12;23.47;;;18.67;;
3781;SDS011;6881;49.962;7.718;2022-09-11T04:10:37;21.70;;;17.70;;
3781;SDS011;6881;49.962;7.718;2022-09-11T04:13:03;22.93;;;17.70;;
3781;SDS011;6881;49.962;7.718;2022-09-11T04:15:29;26.80;;;17.60;;
3781;SDS011;6881;49.962;7.718;2022-09-11T04:17:56;23.07;;;18.20;;
3781;SDS011;6881;49.962;7.718;2022-09-11T04:20:22;22.27;;;17.07;;
3781;SDS011;6881;49.962;7.718;2022-09-11T04:22:48;23.13;;;17.63;;
3781;SDS011;6881;49.962;7.718;2022-09-11T04:25:13;24.53;;;17.47;;
3781;SDS011;6881;49.962;7.718;2022-09-11T04:27:39;22.63;;;17.37;;
3781;SDS011;6881;49.962;7.718;2022-09-11T04:30:04;19.00;;;16.60;;
3781;SDS011;6881;49.962;7.718;2022-09-11T04:32:30;21.20;;;16.17;;
3781;SDS011;6881;49.962;7.718;2022-09-11T04:34:56;21.93;;;17.17;;
3781;SDS011;6881;49.962;7.718;2022-09-11T04:37:21;22.80;;;15.83;;
3781;SDS011;6881;49.962;7.718;2022-09-11T04:39:46;24.30;;;16.37;;
3781;SDS011;6881;49.962;7.718;2022-09-11T04:42:12;19.20;;;15.73;;
3781;SDS011;6881;49.962;7.718;2022-09-11T04:44:38;19.40;;;14.07;;
3781;SDS011;6881;49.962;7.718;2022-09-11T04:47:03;23.80;;;16.07;;
3781;SDS011;6881;49.962;7.718;2022-09-11T04:49:29;23.77;;;19.10;;
3781;SDS011;6881;49.962;7.718;2022-09-11T04:51:54;24.63;;;17.70;;
3781;SDS011;6881;49.962;7.718;2022-09-11T04:54:19;29.43;;;22.10;;
3781;SDS011;6881;49.962;7.718;2022-09-11T04:56:45;24.93;;;20.00;;
3781;SDS011;6881;49.962;7.718;2022-09-11T04:59:12;25.87;;;18.83;;
3781;SDS011;6881;49.962;7.718;2022-09-11T05:01:40;21.60;;;15.17;;
3781;SDS011;6881;49.962;7.718;2022-09-11T05:04:06;22.40;;;17.33;;
3781;SDS011;6881;49.962;7.718;2022-09-11T05:06:32;23.77;;;17.73;;
3781;SDS011;6881;49.962;7.718;2022-09-11T05:09:01;25.67;;;19.17;;
3781;SDS011;6881;49.962;7.718;2022-09-11T05:11:28;22.50;;;17.27;;
3781;SDS011;6881;49.962;7.718;2022-09-11T05:13:54;23.70;;;16.30;;
3781;SDS011;6881;49.962;7.718;2022-09-11T05:16:22;20.40;;;16.10;;
3781;SDS011;6881;49.962;7.718;2022-09-11T05:18:49;21.83;;;17.07;;
3781;SDS011;6881;49.962;7.718;2022-09-11T05:21:16;21.10;;;15.47;;
3781;SDS011;6881;49.962;7.718;2022-09-11T05:23:45;24.27;;;17.20;;
3781;SDS011;6881;49.962;7.718;2022-09-11T05:26:15;21.30;;;17.40;;
3781;SDS011;6881;49.962;7.718;2022-09-11T05:28:41;20.63;;;16.20;;
3781;SDS011;6881;49.962;7.718;2022-09-11T05:31:14;22.33;;;17.20;;
3781;SDS011;6881;49.962;7.718;2022-09-11T05:33:41;20.33;;;14.97;;
3781;SDS011;6881;49.962;7.718;2022-09-11T05:36:10;21.47;;;16.97;;
3781;SDS011;6881;49.962;7.718;2022-09-11T05:38:37;20.20;;;14.50;;
3781;SDS011;6881;49.962;7.718;2022-09-11T05:41:06;20.97;;;17.73;;
3781;SDS011;6881;49.962;7.718;2022-09-11T05:43:33;26.47;;;16.60;;
3781;SDS011;6881;49.962;7.718;2022-09-11T05:45:58;22.10;;;17.57;;
3781;SDS011;6881;49.962;7.718;2022-09-11T05:48:26;21.63;;;16.97;;
3781;SDS011;6881;49.962;7.718;2022-09-11T05:50:52;18.40;;;15.70;;
3781;SDS011;6881;49.962;7.718;2022-09-11T05:53:26;23.47;;;16.90;;
3781;SDS011;6881;49.962;7.718;2022-09-11T05:55:53;22.90;;;17.20;;
3781;SDS011;6881;49.962;7.718;2022-09-11T05:58:19;22.03;;;17.00;;
3781;SDS011;6881;49.962;7.718;2022-09-11T06:00:45;23.20;;;17.60;;
3781;SDS011;6881;49.962;7.718;2022-09-11T06:03:14;21.70;;;18.47;;
3781;SDS011;6881;49.962;7.718;2022-09-11T06:05:40;21.70;;;17.50;;
3781;SDS011;6881;49.962;7.718;2022-09-11T06:08:09;23.30;;;18.20;;
3781;SDS011;6881;49.962;7.718;2022-09-11T06:10:36;24.50;;;16.97;;
3781;SDS011;6881;49.962;7.718;2022-09-11T06:13:02;21.80;;;17.90;;
3781;SDS011;6881;49.962;7.718;2022-09-11T06:15:28;20.80;;;15.10;;
3781;SDS011;6881;49.962;7.718;2022-09-11T06:17:53;21.37;;;16.77;;
3781;SDS011;6881;49.962;7.718;2022-09-11T06:20:19;19.67;;;17.57;;
3781;SDS011;6881;49.962;7.718;2022-09-11T06:22:45;23.90;;;17.67;;
3781;SDS011;6881;49.962;7.718;2022-09-11T06:25:10;19.87;;;15.80;;
3781;SDS011;6881;49.962;7.718;2022-09-11T06:27:36;21.27;;;17.40;;
3781;SDS011;6881;49.962;7.718;2022-09-11T06:30:01;20.13;;;16.50;;
3781;SDS011;6881;49.962;7.718;2022-09-11T06:32:26;20.20;;;14.93;;
3781;SDS011;6881;49.962;7.718;2022-09-11T06:34:52;24.40;;;16.97;;
3781;SDS011;6881;49.962;7.718;2022-09-11T06:37:18;20.83;;;15.37;;
3781;SDS011;6881;49.962;7.718;2022-09-11T06:39:43;24.27;;;16.27;;
3781;SDS011;6881;49.962;7.718;2022-09-11T06:42:09;20.53;;;16.83;;
3781;SDS011;6881;49.962;7.718;2022-09-11T06:44:34;19.80;;;15.50;;
3781;SDS011;6881;49.962;7.718;2022-09-11T06:47:00;19.87;;;16.40;;
3781;SDS011;6881;49.962;7.718;2022-09-11T06:49:25;18.00;;;15.87;;
3781;SDS011;6881;49.962;7.718;2022-09-11T06:51:50;20.10;;;15.20;;
3781;SDS011;6881;49.962;7.718;2022-09-11T06:54:18;19.57;;;15.50;;
3781;SDS011;6881;49.962;7.718;2022-09-11T06:56:43;17.53;;;15.30;;
3781;SDS011;6881;49.962;7.718;2022-09-11T06:59:09;16.80;;;14.90;;
3781;SDS011;6881;49.962;7.718;2022-09-11T07:01:34;16.77;;;12.63;;
3781;SDS011;6881;49.962;7.718;2022-09-11T07:04:00;20.70;;;15.77;;
3781;SDS011;6881;49.962;7.718;2022-09-11T07:06:26;16.10;;;14.17;;
3781;SDS011;6881;49.962;7.718;2022-09-11T07:08:58;16.90;;;14.37;;
3781;SDS011;6881;49.962;7.718;2022-09-11T07:11:28;18.27;;;14.13;;
3781;SDS011;6881;49.962;7.718;2022-09-11T07:13:54;16.00;;;12.73;;
3781;SDS011;6881;49.962;7.718;2022-09-11T07:16:19;15.80;;;13.73;;
3781;SDS011;6881;49.962;7.718;2022-09-11T07:18:45;22.87;;;13.80;;
3781;SDS011;6881;49.962;7.718;2022-09-11T07:21:12;15.70;;;12.40;;
3781;SDS011;6881;49.962;7.718;2022-09-11T07:23:46;13.23;;;11.77;;
3781;SDS011;6881;49.962;7.718;2022-09-11T07:26:13;13.40;;;11.53;;
3781;SDS011;6881;49.962;7.718;2022-09-11T07:28:38;14.37;;;12.03;;
3781;SDS011;6881;49.962;7.718;2022-09-11T07:33:29;17.43;;;12.00;;
3781;SDS011;6881;49.962;7.718;2022-09-11T07:35:54;17.63;;;13.23;;
3781;SDS011;6881;49.962;7.718;2022-09-11T07:38:20;14.00;;;12.50;;
3781;SDS011;6881;49.962;7.718;2022-09-11T07:40:45;17.70;;;13.70;;
3781;SDS011;6881;49.962;7.718;2022-09-11T07:43:10;14.73;;;12.67;;
3781;SDS011;6881;49.962;7.718;2022-09-11T07:45:37;16.47;;;13.20;;
3781;SDS011;6881;49.962;7.718;2022-09-11T07:48:03;18.50;;;14.30;;
3781;SDS011;6881;49.962;7.718;2022-09-11T07:50:30;15.17;;;13.57;;
3781;SDS011;6881;49.962;7.718;2022-09-11T07:52:57;21.93;;;16.10;;
3781;SDS011;6881;49.962;7.718;2022-09-11T07:55:22;14.20;;;12.63;;
3781;SDS011;6881;49.962;7.718;2022-09-11T07:57:48;16.07;;;14.23;;
3781;SDS011;6881;49.962;7.718;2022-09-11T08:00:14;16.70;;;14.23;;
3781;SDS011;6881;49.962;7.718;2022-09-11T08:02:40;16.53;;;13.47;;
3781;SDS011;6881;49.962;7.718;2022-09-11T08:05:07;17.70;;;13.70;;
3781;SDS011;6881;49.962;7.718;2022-09-11T08:07:32;16.20;;;13.87;;
3781;SDS011;6881;49.962;7.718;2022-09-11T08:09:58;15.13;;;11.93;;
3781;SDS011;6881;49.962;7.718;2022-09-11T08:12:23;18.37;;;13.60;;
3781;SDS011;6881;49.962;7.718;2022-09-11T08:14:48;17.60;;;13.00;;
3781;SDS011;6881;49.962;7.718;2022-09-11T08:17:13;17.90;;;12.00;;
3781;SDS011;6881;49.962;7.718;2022-09-11T08:19:40;18.10;;;13.67;;
3781;SDS011;6881;49.962;7.718;2022-09-11T08:22:06;20.73;;;14.57;;
3781;SDS011;6881;49.962;7.718;2022-09-11T08:24:31;15.37;;;12.17;;
3781;SDS011;6881;49.962;7.718;2022-09-11T08:26:57;13.33;;;11.30;;
3781;SDS011;6881;49.962;7.718;2022-09-11T08:29:24;13.30;;;11.53;;
3781;SDS011;6881;49.962;7.718;2022-09-11T08:31:49;12.73;;;11.30;;
3781;SDS011;6881;49.962;7.718;2022-09-11T08:34:15;15.13;;;11.30;;
3781;SDS011;6881;49.962;7.718;2022-09-11T08:36:41;12.93;;;11.03;;
3781;SDS011;6881;49.962;7.718;2022-09-11T08:39:06;12.73;;;11.47;;
3781;SDS011;6881;49.962;7.718;2022-09-11T08:41:51;14.17;;;10.80;;
3781;SDS011;6881;49.962;7.718;2022-09-11T08:44:24;15.67;;;12.03;;
3781;SDS011;6881;49.962;7.718;2022-09-11T08:46:55;12.57;;;10.97;;
3781;SDS011;6881;49.962;7.718;2022-09-11T08:52:04;13.23;;;10.40;;
3781;SDS011;6881;49.962;7.718;2022-09-11T08:54:31;11.63;;;10.43;;
3781;SDS011;6881;49.962;7.718;2022-09-11T09:02:31;12.50;;;10.67;;
3781;SDS011;6881;49.962;7.718;2022-09-11T09:21:24;12.87;;;11.27;;
3781;SDS011;6881;49.962;7.718;2022-09-11T09:23:55;10.40;;;9.10;;
3781;SDS011;6881;49.962;7.718;2022-09-11T09:26:22;11.17;;;9.80;;
3781;SDS011;6881;49.962;7.718;2022-09-11T09:28:51;14.03;;;9.90;;
3781;SDS011;6881;49.962;7.718;2022-09-11T09:31:20;11.50;;;10.17;;
3781;SDS011;6881;49.962;7.718;2022-09-11T09:33:51;9.80;;;8.90;;
3781;SDS011;6881;49.962;7.718;2022-09-11T09:36:23;11.00;;;9.90;;
3781;SDS011;6881;49.962;7.718;2022-09-11T09:39:08;10.30;;;9.00;;
3781;SDS011;6881;49.962;7.718;2022-09-11T09:47:10;9.97;;;8.97;;
3781;SDS011;6881;49.962;7.718;2022-09-11T09:49:36;10.90;;;9.50;;
3781;SDS011;6881;49.962;7.718;2022-09-11T09:52:11;10.00;;;9.00;;
3781;SDS011;6881;49.962;7.718;2022-09-11T09:54:39;12.30;;;9.40;;
3781;SDS011;6881;49.962;7.718;2022-09-11T09:57:05;10.00;;;7.77;;
3781;SDS011;6881;49.962;7.718;2022-09-11T09:59:33;10.13;;;9.20;;
3781;SDS011;6881;49.962;7.718;2022-09-11T10:02:01;9.93;;;8.80;;
3781;SDS011;6881;49.962;7.718;2022-09-11T10:04:27;10.53;;;9.43;;
3781;SDS011;6881;49.962;7.718;2022-09-11T10:07:15;12.33;;;10.00;;
3781;SDS011;6881;49.962;7.718;2022-09-11T10:09:47;11.53;;;9.43;;
3781;SDS011;6881;49.962;7.718;2022-09-11T10:12:24;8.90;;;8.00;;
3781;SDS011;6881;49.962;7.718;2022-09-11T10:14:52;8.90;;;8.10;;
3781;SDS011;6881;49.962;7.718;2022-09-11T10:19:53;9.93;;;8.93;;
3781;SDS011;6881;49.962;7.718;2022-09-11T10:22:23;9.17;;;8.00;;
3781;SDS011;6881;49.962;7.718;2022-09-11T10:27:39;9.83;;;8.20;;
3781;SDS011;6881;49.962;7.718;2022-09-11T10:35:50;11.47;;;8.60;;
3781;SDS011;6881;49.962;7.718;2022-09-11T10:38:19;10.03;;;8.30;;
3781;SDS011;6881;49.962;7.718;2022-09-11T10:40:56;8.57;;;7.77;;
3781;SDS011;6881;49.962;7.718;2022-09-11T10:43:28;9.93;;;7.60;;
3781;SDS011;6881;49.962;7.718;2022-09-11T10:46:02;7.20;;;6.50;;
3781;SDS011;6881;49.962;7.718;2022-09-11T10:48:29;9.10;;;7.47;;
3781;SDS011;6881;49.962;7.718;2022-09-11T10:51:03;6.60;;;6.10;;
3781;SDS011;6881;49.962;7.718;2022-09-11T10:53:32;7.43;;;6.43;;
3781;SDS011;6881;49.962;7.718;2022-09-11T10:56:01;10.20;;;8.03;;
3781;SDS011;6881;49.962;7.718;2022-09-11T10:58:31;6.80;;;5.83;;
3781;SDS011;6881;49.962;7.718;2022-09-11T11:00:58;7.83;;;6.73;;
3781;SDS011;6881;49.962;7.718;2022-09-11T11:03:24;7.87;;;7.17;;
3781;SDS011;6881;49.962;7.718;2022-09-11T11:33:54;5.27;;;4.80;;
3781;SDS011;6881;49.962;7.718;2022-09-11T11:42:09;4.27;;;3.87;;
3781;SDS011;6881;49.962;7.718;2022-09-11T11:44:45;4.70;;;4.30;;
3781;SDS011;6881;49.962;7.718;2022-09-11T11:47:13;4.13;;;3.63;;
3781;SDS011;6881;49.962;7.718;2022-09-11T11:55:38;4.67;;;4.30;;
3781;SDS011;6881;49.962;7.718;2022-09-11T11:58:17;5.33;;;4.93;;
3781;SDS011;6881;49.962;7.718;2022-09-11T12:01:07;5.30;;;3.60;;
3781;SDS011;6881;49.962;7.718;2022-09-11T12:03:41;4.87;;;4.00;;
3781;SDS011;6881;49.962;7.718;2022-09-11T12:06:09;3.80;;;3.50;;
3781;SDS011;6881;49.962;7.718;2022-09-11T12:08:39;4.23;;;3.93;;
3781;SDS011;6881;49.962;7.718;2022-09-11T12:11:07;5.47;;;4.57;;
3781;SDS011;6881;49.962;7.718;2022-09-11T12:13:34;4.30;;;3.80;;
3781;SDS011;6881;49.962;7.718;2022-09-11T12:18:33;4.90;;;4.50;;
3781;SDS011;6881;49.962;7.718;2022-09-11T12:26:19;6.33;;;3.93;;
3781;SDS011;6881;49.962;7.718;2022-09-11T12:28:49;4.20;;;3.80;;
3781;SDS011;6881;49.962;7.718;2022-09-11T12:32:22;4.70;;;3.50;;
3781;SDS011;6881;49.962;7.718;2022-09-11T12:37:03;4.97;;;4.57;;
3781;SDS011;6881;49.962;7.718;2022-09-11T12:43:05;3.00;;;2.80;;
3781;SDS011;6881;49.962;7.718;2022-09-11T12:45:53;3.73;;;3.43;;
3781;SDS011;6881;49.962;7.718;2022-09-11T12:48:22;3.20;;;3.00;;
3781;SDS011;6881;49.962;7.718;2022-09-11T12:50:56;2.90;;;2.70;;
3781;SDS011;6881;49.962;7.718;2022-09-11T12:53:29;3.40;;;3.10;;
3781;SDS011;6881;49.962;7.718;2022-09-11T12:55:59;4.50;;;3.47;;
3781;SDS011;6881;49.962;7.718;2022-09-11T12:58:32;3.53;;;3.20;;
3781;SDS011;6881;49.962;7.718;2022-09-11T13:01:00;3.90;;;3.60;;
3781;SDS011;6881;49.962;7.718;2022-09-11T13:03:28;4.33;;;3.93;;
3781;SDS011;6881;49.962;7.718;2022-09-11T13:05:58;4.47;;;4.17;;
3781;SDS011;6881;49.962;7.718;2022-09-11T13:08:27;4.40;;;4.10;;
3781;SDS011;6881;49.962;7.718;2022-09-11T13:13:58;4.00;;;3.70;;
3781;SDS011;6881;49.962;7.718;2022-09-11T13:16:30;4.00;;;3.60;;
3781;SDS011;6881;49.962;7.718;2022-09-11T13:19:17;3.77;;;3.47;;
3781;SDS011;6881;49.962;7.718;2022-09-11T13:21:49;3.43;;;3.13;;
3781;SDS011;6881;49.962;7.718;2022-09-11T13:24:21;3.70;;;3.40;;
3781;SDS011;6881;49.962;7.718;2022-09-11T13:26:54;3.70;;;3.40;;
3781;SDS011;6881;49.962;7.718;2022-09-11T13:29:24;4.20;;;3.50;;
3781;SDS011;6881;49.962;7.718;2022-09-11T13:31:51;3.80;;;3.50;;
3781;SDS011;6881;49.962;7.718;2022-09-11T13:34:18;4.73;;;3.37;;
3781;SDS011;6881;49.962;7.718;2022-09-11T13:36:45;3.80;;;3.50;;
3781;SDS011;6881;49.962;7.718;2022-09-11T13:39:13;3.83;;;3.50;;
3781;SDS011;6881;49.962;7.718;2022-09-11T13:41:40;3.47;;;3.17;;
3781;SDS011;6881;49.962;7.718;2022-09-11T13:44:09;3.17;;;2.97;;
3781;SDS011;6881;49.962;7.718;2022-09-11T13:46:36;3.70;;;3.00;;
3781;SDS011;6881;49.962;7.718;2022-09-11T13:49:21;3.23;;;3.03;;
3781;SDS011;6881;49.962;7.718;2022-09-11T13:51:50;3.57;;;3.27;;
3781;SDS011;6881;49.962;7.718;2022-09-11T13:54:22;3.33;;;3.03;;
3781;SDS011;6881;49.962;7.718;2022-09-11T14:04:40;4.27;;;3.87;;
3781;SDS011;6881;49.962;7.718;2022-09-11T14:07:17;3.00;;;2.80;;
3781;SDS011;6881;49.962;7.718;2022-09-11T14:09:46;3.50;;;3.20;;
3781;SDS011;6881;49.962;7.718;2022-09-11T14:12:12;3.97;;;3.57;;
3781;SDS011;6881;49.962;7.718;2022-09-11T14:14:38;4.30;;;3.00;;
3781;SDS011;6881;49.962;7.718;2022-09-11T14:17:07;2.90;;;2.70;;
3781;SDS011;6881;49.962;7.718;2022-09-11T14:19:34;4.00;;;3.30;;
3781;SDS011;6881;49.962;7.718;2022-09-11T14:22:00;3.40;;;3.10;;
3781;SDS011;6881;49.962;7.718;2022-09-11T14:24:39;4.03;;;3.53;;
3781;SDS011;6881;49.962;7.718;2022-09-11T14:29:58;3.97;;;3.67;;
3781;SDS011;6881;49.962;7.718;2022-09-11T14:34:50;3.03;;;2.77;;
3781;SDS011;6881;49.962;7.718;2022-09-11T14:37:15;4.07;;;3.77;;
3781;SDS011;6881;49.962;7.718;2022-09-11T14:39:57;4.27;;;3.87;;
3781;SDS011;6881;49.962;7.718;2022-09-11T14:42:28;4.23;;;3.80;;
3781;SDS011;6881;49.962;7.718;2022-09-11T14:44:53;4.40;;;4.00;;
3781;SDS011;6881;49.962;7.718;2022-09-11T14:47:20;6.30;;;4.43;;
3781;SDS011;6881;49.962;7.718;2022-09-11T14:49:50;5.00;;;4.60;;
3781;SDS011;6881;49.962;7.718;2022-09-11T14:52:18;4.90;;;4.50;;
3781;SDS011;6881;49.962;7.718;2022-09-11T14:54:45;4.80;;;4.30;;
3781;SDS011;6881;49.962;7.718;2022-09-11T14:57:22;6.10;;;5.50;;
3781;SDS011;6881;49.962;7.718;2022-09-11T14:59:49;4.40;;;4.10;;
3781;SDS011;6881;49.962;7.718;2022-09-11T15:02:16;4.57;;;4.17;;
3781;SDS011;6881;49.962;7.718;2022-09-11T15:04:43;4.60;;;4.20;;
3781;SDS011;6881;49.962;7.718;2022-09-11T15:07:11;5.23;;;4.73;;
3781;SDS011;6881;49.962;7.718;2022-09-11T15:09:38;4.63;;;4.33;;
3781;SDS011;6881;49.962;7.718;2022-09-11T15:12:04;4.80;;;4.40;;
3781;SDS011;6881;49.962;7.718;2022-09-11T15:14:30;4.30;;;3.90;;
3781;SDS011;6881;49.962;7.718;2022-09-11T15:16:56;4.20;;;3.87;;
3781;SDS011;6881;49.962;7.718;2022-09-11T15:19:27;4.93;;;4.63;;
3781;SDS011;6881;49.962;7.718;2022-09-11T15:21:53;3.90;;;3.60;;
3781;SDS011;6881;49.962;7.718;2022-09-11T15:24:20;4.37;;;3.87;;
3781;SDS011;6881;49.962;7.718;2022-09-11T15:26:45;3.97;;;3.57;;
3781;SDS011;6881;49.962;7.718;2022-09-11T15:29:11;4.97;;;4.50;;
3781;SDS011;6881;49.962;7.718;2022-09-11T15:31:36;4.13;;;3.83;;
3781;SDS011;6881;49.962;7.718;2022-09-11T15:34:02;4.07;;;3.63;;
3781;SDS011;6881;49.962;7.718;2022-09-11T15:36:29;5.53;;;4.10;;
3781;SDS011;6881;49.962;7.718;2022-09-11T15:38:55;3.77;;;3.37;;
3781;SDS011;6881;49.962;7.718;2022-09-11T15:41:21;4.20;;;3.90;;
3781;SDS011;6881;49.962;7.718;2022-09-11T15:43:48;3.90;;;3.60;;
3781;SDS011;6881;49.962;7.718;2022-09-11T15:46:15;3.63;;;3.33;;
3781;SDS011;6881;49.962;7.718;2022-09-11T15:48:41;4.27;;;3.90;;
3781;SDS011;6881;49.962;7.718;2022-09-11T15:51:07;4.00;;;3.20;;
3781;SDS011;6881;49.962;7.718;2022-09-11T15:53:32;5.37;;;4.07;;
3781;SDS011;6881;49.962;7.718;2022-09-11T15:56:02;4.10;;;3.70;;
3781;SDS011;6881;49.962;7.718;2022-09-11T15:58:39;4.47;;;4.07;;
3781;SDS011;6881;49.962;7.718;2022-09-11T16:01:06;3.97;;;3.60;;
3781;SDS011;6881;49.962;7.718;2022-09-11T16:03:32;4.70;;;3.57;;
3781;SDS011;6881;49.962;7.718;2022-09-11T16:05:57;3.73;;;3.27;;
3781;SDS011;6881;49.962;7.718;2022-09-11T16:08:24;7.00;;;3.70;;
3781;SDS011;6881;49.962;7.718;2022-09-11T16:10:50;3.90;;;3.30;;
3781;SDS011;6881;49.962;7.718;2022-09-11T16:13:16;3.70;;;3.40;;
3781;SDS011;6881;49.962;7.718;2022-09-11T16:15:42;3.00;;;2.80;;
3781;SDS011;6881;49.962;7.718;2022-09-11T16:18:08;4.00;;;3.60;;
3781;SDS011;6881;49.962;7.718;2022-09-11T16:20:34;3.80;;;3.40;;
3781;SDS011;6881;49.962;7.718;2022-09-11T16:23:00;3.73;;;3.40;;
3781;SDS011;6881;49.962;7.718;2022-09-11T16:25:28;4.03;;;3.73;;
3781;SDS011;6881;49.962;7.718;2022-09-11T16:27:57;4.33;;;4.00;;
3781;SDS011;6881;49.962;7.718;2022-09-11T16:30:22;4.10;;;3.07;;
3781;SDS011;6881;49.962;7.718;2022-09-11T16:32:48;4.03;;;3.70;;
3781;SDS011;6881;49.962;7.718;2022-09-11T16:35:14;3.90;;;3.60;;
3781;SDS011;6881;49.962;7.718;2022-09-11T16:37:41;4.10;;;3.67;;
3781;SDS011;6881;49.962;7.718;2022-09-11T16:40:08;5.37;;;3.97;;
3781;SDS011;6881;49.962;7.718;2022-09-11T16:42:33;6.63;;;4.10;;
3781;SDS011;6881;49.962;7.718;2022-09-11T16:44:59;4.77;;;3.70;;
3781;SDS011;6881;49.962;7.718;2022-09-11T16:47:24;6.40;;;4.00;;
3781;SDS011;6881;49.962;7.718;2022-09-11T16:49:49;5.03;;;4.63;;
3781;SDS011;6881;49.962;7.718;2022-09-11T16:52:15;4.87;;;4.07;;
3781;SDS011;6881;49.962;7.718;2022-09-11T16:54:40;4.40;;;4.00;;
3781;SDS011;6881;49.962;7.718;2022-09-11T16:57:07;4.43;;;4.03;;
3781;SDS011;6881;49.962;7.718;2022-09-11T16:59:33;3.40;;;3.10;;
3781;SDS011;6881;49.962;7.718;2022-09-11T17:01:59;4.00;;;3.70;;
3781;SDS011;6881;49.962;7.718;2022-09-11T17:04:25;5.37;;;3.80;;
3781;SDS011;6881;49.962;7.718;2022-09-11T17:06:50;4.10;;;3.80;;
3781;SDS011;6881;49.962;7.718;2022-09-11T17:09:15;4.80;;;4.40;;
3781;SDS011;6881;49.962;7.718;2022-09-11T17:11:41;3.53;;;3.23;;
3781;SDS011;6881;49.962;7.718;2022-09-11T17:14:08;4.00;;;3.60;;
3781;SDS011;6881;49.962;7.718;2022-09-11T17:16:35;3.90;;;3.60;;
3781;SDS011;6881;49.962;7.718;2022-09-11T17:19:02;3.77;;;3.47;;
3781;SDS011;6881;49.962;7.718;2022-09-11T17:21:28;4.73;;;4.13;;
3781;SDS011;6881;49.962;7.718;2022-09-11T17:23:54;4.20;;;3.73;;
3781;SDS011;6881;49.962;7.718;2022-09-11T17:26:21;3.87;;;3.57;;
3781;SDS011;6881;49.962;7.718;2022-09-11T17:28:48;4.30;;;3.90;;
3781;SDS011;6881;49.962;7.718;2022-09-11T17:31:14;6.40;;;3.80;;
3781;SDS011;6881;49.962;7.718;2022-09-11T17:33:41;4.83;;;3.90;;
3781;SDS011;6881;49.962;7.718;2022-09-11T17:36:08;4.47;;;3.50;;